sensor_id;sensor_type;location;lat;lon;timestamp;temperature;humidity
7720;DHT22;3902;49.474;8.616;2022-09-29T00:00:11;11.50;99.90
7720;DHT22;3902;49.474;8.616;2022-09-29T00:02:37;11.50;99.90
7720;DHT22;3902;49.474;8.616;2022-09-29T00:05:03;11.50;99.90
7720;DHT22;3902;49.474;8.616;2022-09-29T00:07:29;11.50;99.90
7720;DHT22;3902;49.474;8.616;2022-09-29T00:09:56;11.50;99.90
7720;DHT22;3902;49.474;8.616;2022-09-29T00:12:22;11.40;99.90
7720;DHT22;3902;49.474;8.616;2022-09-29T00:14:47;11.40;99.90
7720;DHT22;3902;49.474;8.616;2022-09-29T00:17:13;11.40;99.90
7720;DHT22;3902;49.474;8.616;2022-09-29T00:19:38;11.40;99.90
7720;DHT22;3902;49.474;8.616;2022-09-29T00:22:04;11.30;99.90
7720;DHT22;3902;49.474;8.616;2022-09-29T00:24:29;11.30;99.90
7720;DHT22;3902;49.474;8.616;2022-09-29T00:26:55;11.30;99.90
7720;DHT22;3902;49.474;8.616;2022-09-29T00:29:21;11.30;99.90
7720;DHT22;3902;49.474;8.616;2022-09-29T00:31:46;11.30;99.90
7720;DHT22;3902;49.474;8.616;2022-09-29T00:34:12;11.30;99.90
7720;DHT22;3902;49.474;8.616;2022-09-29T00:36:38;11.30;99.90
7720;DHT22;3902;49.474;8.616;2022-09-29T00:39:03;11.20;99.90
7720;DHT22;3902;49.474;8.616;2022-09-29T00:41:32;11.20;99.90
7720;DHT22;3902;49.474;8.616;2022-09-29T00:44:05;11.20;99.90
7720;DHT22;3902;49.474;8.616;2022-09-29T00:46:44;11.20;99.90
7720;DHT22;3902;49.474;8.616;2022-09-29T00:49:28;11.20;99.90
7720;DHT22;3902;49.474;8.616;2022-09-29T00:51:59;11.10;99.90
7720;DHT22;3902;49.474;8.616;2022-09-29T00:54:27;11.00;99.90
7720;DHT22;3902;49.474;8.616;2022-09-29T00:56:55;11.00;99.90
7720;DHT22;3902;49.474;8.616;2022-09-29T00:59:34;11.00;99.90
7720;DHT22;3902;49.474;8.616;2022-09-29T01:02:01;11.10;99.90
7720;DHT22;3902;49.474;8.616;2022-09-29T01:04:27;11.10;99.90
7720;DHT22;3902;49.474;8.616;2022-09-29T01:06:55;11.20;99.90
7720;DHT22;3902;49.474;8.616;2022-09-29T01:09:28;11.20;99.90
7720;DHT22;3902;49.474;8.616;2022-09-29T01:11:56;11.20;99.90
7720;DHT22;3902;49.474;8.616;2022-09-29T01:14:25;11.20;99.90
7720;DHT22;3902;49.474;8.616;2022-09-29T01:16:51;11.00;99.90
7720;DHT22;3902;49.474;8.616;2022-09-29T01:19:29;11.10;99.90
7720;DHT22;3902;49.474;8.616;2022-09-29T01:22:19;11.00;99.90
7720;DHT22;3902;49.474;8.616;2022-09-29T01:28:15;11.10;99.90
7720;DHT22;3902;49.474;8.616;2022-09-29T01:34:08;11.00;99.90
7720;DHT22;3902;49.474;8.616;2022-09-29T01:36:53;11.00;99.90
7720;DHT22;3902;49.474;8.616;2022-09-29T01:42:21;11.00;99.90
7720;DHT22;3902;49.474;8.616;2022-09-29T01:44:58;11.00;99.90
7720;DHT22;3902;49.474;8.616;2022-09-29T01:47:37;10.90;99.90
7720;DHT22;3902;49.474;8.616;2022-09-29T01:50:08;10.90;99.90
7720;DHT22;3902;49.474;8.616;2022-09-29T01:52:41;10.80;99.90
7720;DHT22;3902;49.474;8.616;2022-09-29T01:55:11;10.70;99.90
7720;DHT22;3902;49.474;8.616;2022-09-29T02:00:06;10.50;99.90
7720;DHT22;3902;49.474;8.616;2022-09-29T02:02:54;10.50;99.90
7720;DHT22;3902;49.474;8.616;2022-09-29T02:05:27;10.40;99.90
7720;DHT22;3902;49.474;8.616;2022-09-29T02:07:56;10.30;99.90
7720;DHT22;3902;49.474;8.616;2022-09-29T02:10:34;10.30;99.90
7720;DHT22;3902;49.474;8.616;2022-09-29T02:13:04;10.30;99.90
7720;DHT22;3902;49.474;8.616;2022-09-29T02:15:33;10.30;99.90
7720;DHT22;3902;49.474;8.616;2022-09-29T02:18:05;10.30;99.90
7720;DHT22;3902;49.474;8.616;2022-09-29T02:20:34;10.20;99.90
7720;DHT22;3902;49.474;8.616;2022-09-29T02:23:00;10.30;99.90
7720;DHT22;3902;49.474;8.616;2022-09-29T02:25:25;10.30;99.90
7720;DHT22;3902;49.474;8.616;2022-09-29T02:27:51;10.40;99.90
7720;DHT22;3902;49.474;8.616;2022-09-29T02:30:17;10.40;99.90
7720;DHT22;3902;49.474;8.616;2022-09-29T02:32:46;10.40;99.90
7720;DHT22;3902;49.474;8.616;2022-09-29T02:35:13;10.40;99.90
7720;DHT22;3902;49.474;8.616;2022-09-29T02:38:00;10.40;99.90
7720;DHT22;3902;49.474;8.616;2022-09-29T02:40:48;10.40;99.90
7720;DHT22;3902;49.474;8.616;2022-09-29T02:43:38;10.40;99.90
7720;DHT22;3902;49.474;8.616;2022-09-29T02:46:36;10.40;99.90
7720;DHT22;3902;49.474;8.616;2022-09-29T03:00:04;10.40;99.90
7720;DHT22;3902;49.474;8.616;2022-09-29T03:02:33;10.40;99.90
7720;DHT22;3902;49.474;8.616;2022-09-29T03:04:59;10.30;99.90
7720;DHT22;3902;49.474;8.616;2022-09-29T03:07:24;10.40;99.90
7720;DHT22;3902;49.474;8.616;2022-09-29T03:09:50;10.40;99.90
7720;DHT22;3902;49.474;8.616;2022-09-29T03:12:15;10.40;99.90
7720;DHT22;3902;49.474;8.616;2022-09-29T03:14:42;10.40;99.90
7720;DHT22;3902;49.474;8.616;2022-09-29T03:17:08;10.40;99.90
7720;DHT22;3902;49.474;8.616;2022-09-29T03:19:33;10.40;99.90
7720;DHT22;3902;49.474;8.616;2022-09-29T03:21:59;10.40;99.90
7720;DHT22;3902;49.474;8.616;2022-09-29T03:24:24;10.40;99.90
7720;DHT22;3902;49.474;8.616;2022-09-29T03:26:50;10.40;99.90
7720;DHT22;3902;49.474;8.616;2022-09-29T03:29:16;10.40;99.90
7720;DHT22;3902;49.474;8.616;2022-09-29T03:31:41;10.40;99.90
7720;DHT22;3902;49.474;8.616;2022-09-29T03:34:07;10.40;99.90
7720;DHT22;3902;49.474;8.616;2022-09-29T03:36:32;10.40;99.90
7720;DHT22;3902;49.474;8.616;2022-09-29T03:38:58;10.40;99.90
7720;DHT22;3902;49.474;8.616;2022-09-29T03:41:23;10.40;99.90
7720;DHT22;3902;49.474;8.616;2022-09-29T03:43:49;10.40;99.90
7720;DHT22;3902;49.474;8.616;2022-09-29T03:46:14;10.40;99.90
7720;DHT22;3902;49.474;8.616;2022-09-29T03:48:40;10.40;99.90
7720;DHT22;3902;49.474;8.616;2022-09-29T03:51:07;10.40;99.90
7720;DHT22;3902;49.474;8.616;2022-09-29T03:53:34;10.30;99.90
7720;DHT22;3902;49.474;8.616;2022-09-29T03:56:00;10.30;99.90
7720;DHT22;3902;49.474;8.616;2022-09-29T03:58:26;10.30;99.90
7720;DHT22;3902;49.474;8.616;2022-09-29T04:00:52;10.40;99.90
7720;DHT22;3902;49.474;8.616;2022-09-29T04:03:18;10.30;99.90
7720;DHT22;3902;49.474;8.616;2022-09-29T04:05:45;10.30;99.90
7720;DHT22;3902;49.474;8.616;2022-09-29T04:08:10;10.30;99.90
7720;DHT22;3902;49.474;8.616;2022-09-29T04:10:36;10.30;99.90
7720;DHT22;3902;49.474;8.616;2022-09-29T04:13:02;10.20;99.90
7720;DHT22;3902;49.474;8.616;2022-09-29T04:15:28;10.30;99.90
7720;DHT22;3902;49.474;8.616;2022-09-29T04:17:54;10.20;99.90
7720;DHT22;3902;49.474;8.616;2022-09-29T04:20:19;10.20;99.90
7720;DHT22;3902;49.474;8.616;2022-09-29T04:22:45;10.20;99.90
7720;DHT22;3902;49.474;8.616;2022-09-29T04:25:10;10.20;99.90
7720;DHT22;3902;49.474;8.616;2022-09-29T04:27:36;10.20;99.90
7720;DHT22;3902;49.474;8.616;2022-09-29T04:30:02;10.20;99.90
7720;DHT22;3902;49.474;8.616;2022-09-29T04:32:28;10.10;99.90
7720;DHT22;3902;49.474;8.616;2022-09-29T04:34:53;10.10;99.90
7720;DHT22;3902;49.474;8.616;2022-09-29T04:37:19;10.10;99.90
7720;DHT22;3902;49.474;8.616;2022-09-29T04:39:44;10.10;99.90
7720;DHT22;3902;49.474;8.616;2022-09-29T04:42:10;10.10;99.90
7720;DHT22;3902;49.474;8.616;2022-09-29T04:44:35;10.00;99.90
7720;DHT22;3902;49.474;8.616;2022-09-29T04:47:01;10.00;99.90
7720;DHT22;3902;49.474;8.616;2022-09-29T04:49:26;10.00;99.90
7720;DHT22;3902;49.474;8.616;2022-09-29T04:51:52;10.00;99.90
7720;DHT22;3902;49.474;8.616;2022-09-29T04:54:17;10.00;99.90
7720;DHT22;3902;49.474;8.616;2022-09-29T04:56:43;10.00;99.90
7720;DHT22;3902;49.474;8.616;2022-09-29T04:59:09;10.00;99.90
7720;DHT22;3902;49.474;8.616;2022-09-29T05:01:34;10.00;99.90
7720;DHT22;3902;49.474;8.616;2022-09-29T05:04:01;9.90;99.90
7720;DHT22;3902;49.474;8.616;2022-09-29T05:06:27;9.90;99.90
7720;DHT22;3902;49.474;8.616;2022-09-29T05:08:52;9.90;99.90
7720;DHT22;3902;49.474;8.616;2022-09-29T05:11:18;9.90;99.90
7720;DHT22;3902;49.474;8.616;2022-09-29T05:13:43;9.90;99.90
7720;DHT22;3902;49.474;8.616;2022-09-29T05:16:12;9.90;99.90
7720;DHT22;3902;49.474;8.616;2022-09-29T05:18:37;9.80;99.90
7720;DHT22;3902;49.474;8.616;2022-09-29T05:21:07;9.80;99.90
7720;DHT22;3902;49.474;8.616;2022-09-29T05:23:33;9.80;99.90
7720;DHT22;3902;49.474;8.616;2022-09-29T05:26:04;9.80;99.90
7720;DHT22;3902;49.474;8.616;2022-09-29T05:28:30;9.80;99.90
7720;DHT22;3902;49.474;8.616;2022-09-29T05:31:03;9.80;99.90
7720;DHT22;3902;49.474;8.616;2022-09-29T05:33:29;9.90;99.90
7720;DHT22;3902;49.474;8.616;2022-09-29T05:35:55;9.90;99.90
7720;DHT22;3902;49.474;8.616;2022-09-29T05:38:20;9.90;99.90
7720;DHT22;3902;49.474;8.616;2022-09-29T05:40:47;9.90;99.90
7720;DHT22;3902;49.474;8.616;2022-09-29T05:43:13;9.90;99.90
7720;DHT22;3902;49.474;8.616;2022-09-29T05:45:39;9.90;99.90
7720;DHT22;3902;49.474;8.616;2022-09-29T05:48:04;10.00;99.90
7720;DHT22;3902;49.474;8.616;2022-09-29T05:50:30;10.00;99.90
7720;DHT22;3902;49.474;8.616;2022-09-29T05:53:02;10.00;99.90
7720;DHT22;3902;49.474;8.616;2022-09-29T05:55:27;10.00;99.90
7720;DHT22;3902;49.474;8.616;2022-09-29T05:57:53;10.00;99.90
7720;DHT22;3902;49.474;8.616;2022-09-29T06:00:18;10.10;99.90
7720;DHT22;3902;49.474;8.616;2022-09-29T06:02:44;10.10;99.90
7720;DHT22;3902;49.474;8.616;2022-09-29T06:05:09;10.00;99.90
7720;DHT22;3902;49.474;8.616;2022-09-29T06:07:35;10.10;99.90
7720;DHT22;3902;49.474;8.616;2022-09-29T06:10:00;10.10;99.90
7720;DHT22;3902;49.474;8.616;2022-09-29T06:12:26;10.10;99.90
7720;DHT22;3902;49.474;8.616;2022-09-29T06:14:51;10.20;99.90
7720;DHT22;3902;49.474;8.616;2022-09-29T06:17:17;10.20;99.90
7720;DHT22;3902;49.474;8.616;2022-09-29T06:19:42;10.20;99.90
7720;DHT22;3902;49.474;8.616;2022-09-29T06:22:08;10.20;99.90
7720;DHT22;3902;49.474;8.616;2022-09-29T06:24:33;10.20;99.90
7720;DHT22;3902;49.474;8.616;2022-09-29T06:26:59;10.20;99.90
7720;DHT22;3902;49.474;8.616;2022-09-29T06:29:24;10.30;99.90
7720;DHT22;3902;49.474;8.616;2022-09-29T06:31:50;10.30;99.90
7720;DHT22;3902;49.474;8.616;2022-09-29T06:34:15;10.40;99.90
7720;DHT22;3902;49.474;8.616;2022-09-29T06:36:43;10.40;99.90
7720;DHT22;3902;49.474;8.616;2022-09-29T06:39:27;10.40;99.90
7720;DHT22;3902;49.474;8.616;2022-09-29T06:41:53;10.50;99.90
7720;DHT22;3902;49.474;8.616;2022-09-29T06:44:22;10.50;99.90
7720;DHT22;3902;49.474;8.616;2022-09-29T06:46:49;10.50;99.90
7720;DHT22;3902;49.474;8.616;2022-09-29T06:49:16;10.60;99.90
7720;DHT22;3902;49.474;8.616;2022-09-29T06:51:42;10.60;99.90
7720;DHT22;3902;49.474;8.616;2022-09-29T06:54:09;10.70;99.90
7720;DHT22;3902;49.474;8.616;2022-09-29T06:56:34;10.70;99.90
7720;DHT22;3902;49.474;8.616;2022-09-29T06:59:00;10.70;99.90
7720;DHT22;3902;49.474;8.616;2022-09-29T07:01:25;10.70;99.90
7720;DHT22;3902;49.474;8.616;2022-09-29T07:03:51;10.80;99.90
7720;DHT22;3902;49.474;8.616;2022-09-29T07:06:16;10.70;99.90
7720;DHT22;3902;49.474;8.616;2022-09-29T07:08:42;10.80;99.90
7720;DHT22;3902;49.474;8.616;2022-09-29T07:11:09;10.80;99.90
7720;DHT22;3902;49.474;8.616;2022-09-29T07:13:35;10.80;99.90
7720;DHT22;3902;49.474;8.616;2022-09-29T07:16:09;10.80;99.90
7720;DHT22;3902;49.474;8.616;2022-09-29T07:18:37;10.90;99.90
7720;DHT22;3902;49.474;8.616;2022-09-29T07:21:05;10.90;99.90
7720;DHT22;3902;49.474;8.616;2022-09-29T07:23:31;10.90;99.90
7720;DHT22;3902;49.474;8.616;2022-09-29T07:25:56;10.90;99.90
7720;DHT22;3902;49.474;8.616;2022-09-29T07:28:22;10.90;99.90
7720;DHT22;3902;49.474;8.616;2022-09-29T07:30:58;10.90;99.90
7720;DHT22;3902;49.474;8.616;2022-09-29T07:33:23;10.90;99.90
7720;DHT22;3902;49.474;8.616;2022-09-29T07:35:52;11.00;99.90
7720;DHT22;3902;49.474;8.616;2022-09-29T07:38:17;11.00;99.90
7720;DHT22;3902;49.474;8.616;2022-09-29T07:40:42;11.00;99.90
7720;DHT22;3902;49.474;8.616;2022-09-29T07:43:08;11.00;99.90
7720;DHT22;3902;49.474;8.616;2022-09-29T07:45:34;11.10;99.90
7720;DHT22;3902;49.474;8.616;2022-09-29T07:47:59;11.10;99.90
7720;DHT22;3902;49.474;8.616;2022-09-29T07:50:25;11.10;99.90
7720;DHT22;3902;49.474;8.616;2022-09-29T07:52:51;11.20;99.90
7720;DHT22;3902;49.474;8.616;2022-09-29T07:55:17;11.30;99.90
7720;DHT22;3902;49.474;8.616;2022-09-29T07:57:46;11.40;99.90
7720;DHT22;3902;49.474;8.616;2022-09-29T08:00:12;11.50;99.90
7720;DHT22;3902;49.474;8.616;2022-09-29T08:02:38;11.50;99.90
7720;DHT22;3902;49.474;8.616;2022-09-29T08:05:04;11.60;99.90
7720;DHT22;3902;49.474;8.616;2022-09-29T08:07:29;11.70;99.90
7720;DHT22;3902;49.474;8.616;2022-09-29T08:09:55;11.80;99.90
7720;DHT22;3902;49.474;8.616;2022-09-29T08:12:20;11.80;99.90
7720;DHT22;3902;49.474;8.616;2022-09-29T08:14:46;11.90;99.90
7720;DHT22;3902;49.474;8.616;2022-09-29T08:17:13;11.90;99.90
7720;DHT22;3902;49.474;8.616;2022-09-29T08:19:38;11.90;99.90
7720;DHT22;3902;49.474;8.616;2022-09-29T08:22:04;12.00;99.90
7720;DHT22;3902;49.474;8.616;2022-09-29T08:24:29;12.00;99.90
7720;DHT22;3902;49.474;8.616;2022-09-29T08:26:55;12.00;99.90
7720;DHT22;3902;49.474;8.616;2022-09-29T08:29:22;12.00;99.90
7720;DHT22;3902;49.474;8.616;2022-09-29T08:31:47;11.90;99.90
7720;DHT22;3902;49.474;8.616;2022-09-29T08:34:13;12.00;99.90
7720;DHT22;3902;49.474;8.616;2022-09-29T08:36:40;12.10;99.90
7720;DHT22;3902;49.474;8.616;2022-09-29T08:39:05;12.10;99.90
7720;DHT22;3902;49.474;8.616;2022-09-29T08:47:13;12.20;99.90
7720;DHT22;3902;49.474;8.616;2022-09-29T08:49:41;12.20;99.90
7720;DHT22;3902;49.474;8.616;2022-09-29T08:52:28;12.20;99.90
7720;DHT22;3902;49.474;8.616;2022-09-29T08:57:42;12.30;99.90
7720;DHT22;3902;49.474;8.616;2022-09-29T09:00:13;12.30;99.90
7720;DHT22;3902;49.474;8.616;2022-09-29T09:09:01;12.50;99.90
7720;DHT22;3902;49.474;8.616;2022-09-29T09:11:56;12.50;99.90
7720;DHT22;3902;49.474;8.616;2022-09-29T09:20:39;12.70;99.90
7720;DHT22;3902;49.474;8.616;2022-09-29T09:23:37;12.80;99.90
7720;DHT22;3902;49.474;8.616;2022-09-29T09:26:05;12.80;99.90
7720;DHT22;3902;49.474;8.616;2022-09-29T09:28:54;12.90;99.90
7720;DHT22;3902;49.474;8.616;2022-09-29T09:31:39;12.90;99.90
7720;DHT22;3902;49.474;8.616;2022-09-29T09:36:48;13.00;99.90
7720;DHT22;3902;49.474;8.616;2022-09-29T09:39:24;13.10;99.90
7720;DHT22;3902;49.474;8.616;2022-09-29T09:41:52;13.20;99.90
7720;DHT22;3902;49.474;8.616;2022-09-29T09:44:37;13.40;99.90
7720;DHT22;3902;49.474;8.616;2022-09-29T09:49:45;13.60;99.90
7720;DHT22;3902;49.474;8.616;2022-09-29T09:52:52;13.70;99.90
7720;DHT22;3902;49.474;8.616;2022-09-29T09:55:24;13.80;99.90
7720;DHT22;3902;49.474;8.616;2022-09-29T09:58:17;13.90;99.90
7720;DHT22;3902;49.474;8.616;2022-09-29T10:01:01;13.90;99.90
7720;DHT22;3902;49.474;8.616;2022-09-29T10:03:28;13.90;99.90
7720;DHT22;3902;49.474;8.616;2022-09-29T10:05:54;14.00;99.90
7720;DHT22;3902;49.474;8.616;2022-09-29T10:08:39;14.00;99.90
7720;DHT22;3902;49.474;8.616;2022-09-29T10:11:21;14.00;99.90
7720;DHT22;3902;49.474;8.616;2022-09-29T10:13:47;14.00;99.90
7720;DHT22;3902;49.474;8.616;2022-09-29T10:16:20;14.10;99.90
7720;DHT22;3902;49.474;8.616;2022-09-29T10:18:49;14.10;99.90
7720;DHT22;3902;49.474;8.616;2022-09-29T10:21:39;14.20;99.90
7720;DHT22;3902;49.474;8.616;2022-09-29T10:26:53;14.30;99.90
7720;DHT22;3902;49.474;8.616;2022-09-29T10:29:24;14.10;99.90
7720;DHT22;3902;49.474;8.616;2022-09-29T10:32:05;14.20;99.90
7720;DHT22;3902;49.474;8.616;2022-09-29T10:34:33;14.40;99.90
7720;DHT22;3902;49.474;8.616;2022-09-29T10:37:06;14.40;99.90
7720;DHT22;3902;49.474;8.616;2022-09-29T10:39:44;14.50;99.90
7720;DHT22;3902;49.474;8.616;2022-09-29T10:42:33;14.50;99.90
7720;DHT22;3902;49.474;8.616;2022-09-29T10:47:38;14.80;99.90
7720;DHT22;3902;49.474;8.616;2022-09-29T10:52:33;15.40;99.90
7720;DHT22;3902;49.474;8.616;2022-09-29T10:54:59;15.80;99.90
7720;DHT22;3902;49.474;8.616;2022-09-29T10:57:30;16.40;99.90
7720;DHT22;3902;49.474;8.616;2022-09-29T10:59:57;17.20;99.90
7720;DHT22;3902;49.474;8.616;2022-09-29T11:02:41;18.10;99.90
7720;DHT22;3902;49.474;8.616;2022-09-29T11:05:20;19.10;99.90
7720;DHT22;3902;49.474;8.616;2022-09-29T11:07:49;19.80;99.90
7720;DHT22;3902;49.474;8.616;2022-09-29T11:10:33;20.30;99.90
7720;DHT22;3902;49.474;8.616;2022-09-29T11:15:48;20.60;99.90
7720;DHT22;3902;49.474;8.616;2022-09-29T11:18:35;20.80;99.90
7720;DHT22;3902;49.474;8.616;2022-09-29T11:21:21;21.10;99.90
7720;DHT22;3902;49.474;8.616;2022-09-29T11:29:49;23.00;99.90
7720;DHT22;3902;49.474;8.616;2022-09-29T11:32:33;23.30;99.90
7720;DHT22;3902;49.474;8.616;2022-09-29T11:40:40;23.60;99.90
7720;DHT22;3902;49.474;8.616;2022-09-29T11:52:36;25.00;99.90
7720;DHT22;3902;49.474;8.616;2022-09-29T12:04:16;24.40;99.40
7720;DHT22;3902;49.474;8.616;2022-09-29T12:17:28;21.70;99.90
7720;DHT22;3902;49.474;8.616;2022-09-29T12:20:47;21.60;99.90
7720;DHT22;3902;49.474;8.616;2022-09-29T12:22:49;21.40;99.90
7720;DHT22;3902;49.474;8.616;2022-09-29T12:25:17;21.20;99.90
7720;DHT22;3902;49.474;8.616;2022-09-29T12:27:45;21.10;99.90
7720;DHT22;3902;49.474;8.616;2022-09-29T12:30:32;21.00;99.90
7720;DHT22;3902;49.474;8.616;2022-09-29T12:33:06;21.00;99.90
7720;DHT22;3902;49.474;8.616;2022-09-29T12:35:54;20.90;99.90
7720;DHT22;3902;49.474;8.616;2022-09-29T12:38:29;20.80;99.90
7720;DHT22;3902;49.474;8.616;2022-09-29T12:41:20;20.70;99.90
7720;DHT22;3902;49.474;8.616;2022-09-29T12:46:43;20.80;99.90
7720;DHT22;3902;49.474;8.616;2022-09-29T12:52:25;21.00;99.90
7720;DHT22;3902;49.474;8.616;2022-09-29T12:55:00;20.90;99.90
7720;DHT22;3902;49.474;8.616;2022-09-29T12:57:39;20.60;99.90
7720;DHT22;3902;49.474;8.616;2022-09-29T13:00:11;20.40;99.90
7720;DHT22;3902;49.474;8.616;2022-09-29T13:09:17;20.00;99.90
7720;DHT22;3902;49.474;8.616;2022-09-29T13:14:41;20.10;99.60
7720;DHT22;3902;49.474;8.616;2022-09-29T13:22:51;19.90;99.90
7720;DHT22;3902;49.474;8.616;2022-09-29T13:25:34;19.80;99.90
7720;DHT22;3902;49.474;8.616;2022-09-29T13:28:33;19.70;99.90
7720;DHT22;3902;49.474;8.616;2022-09-29T13:31:02;19.50;99.90
7720;DHT22;3902;49.474;8.616;2022-09-29T13:33:28;19.70;99.90
7720;DHT22;3902;49.474;8.616;2022-09-29T13:35:54;19.90;99.90
7720;DHT22;3902;49.474;8.616;2022-09-29T13:38:27;20.00;99.90
7720;DHT22;3902;49.474;8.616;2022-09-29T13:41:11;19.60;99.40
7720;DHT22;3902;49.474;8.616;2022-09-29T13:54:29;18.50;99.90
7720;DHT22;3902;49.474;8.616;2022-09-29T13:59:30;18.20;99.90
7720;DHT22;3902;49.474;8.616;2022-09-29T14:01:56;18.20;99.90
7720;DHT22;3902;49.474;8.616;2022-09-29T14:04:43;18.00;99.90
7720;DHT22;3902;49.474;8.616;2022-09-29T14:07:33;17.80;99.90
7720;DHT22;3902;49.474;8.616;2022-09-29T14:10:25;17.80;99.90
7720;DHT22;3902;49.474;8.616;2022-09-29T14:15:31;17.50;99.90
7720;DHT22;3902;49.474;8.616;2022-09-29T14:18:01;17.50;99.90
7720;DHT22;3902;49.474;8.616;2022-09-29T14:20:31;17.40;99.90
7720;DHT22;3902;49.474;8.616;2022-09-29T14:23:06;17.30;99.90
7720;DHT22;3902;49.474;8.616;2022-09-29T14:28:12;17.20;99.90
7720;DHT22;3902;49.474;8.616;2022-09-29T14:30:48;17.30;99.90
7720;DHT22;3902;49.474;8.616;2022-09-29T14:33:25;17.30;99.90
7720;DHT22;3902;49.474;8.616;2022-09-29T14:38:35;17.30;99.90
7720;DHT22;3902;49.474;8.616;2022-09-29T14:41:30;17.20;99.90
7720;DHT22;3902;49.474;8.616;2022-09-29T14:44:29;17.00;99.90
7720;DHT22;3902;49.474;8.616;2022-09-29T14:47:38;16.70;99.90
7720;DHT22;3902;49.474;8.616;2022-09-29T14:50:59;16.80;99.90
7720;DHT22;3902;49.474;8.616;2022-09-29T15:01:32;16.70;99.90
7720;DHT22;3902;49.474;8.616;2022-09-29T15:04:11;16.60;99.90
7720;DHT22;3902;49.474;8.616;2022-09-29T15:07:02;16.60;99.90
7720;DHT22;3902;49.474;8.616;2022-09-29T15:09:34;16.50;99.90
7720;DHT22;3902;49.474;8.616;2022-09-29T15:12:01;16.50;99.90
7720;DHT22;3902;49.474;8.616;2022-09-29T15:14:31;16.60;99.90
7720;DHT22;3902;49.474;8.616;2022-09-29T15:17:31;16.60;99.90
7720;DHT22;3902;49.474;8.616;2022-09-29T15:25:30;16.40;99.90
7720;DHT22;3902;49.474;8.616;2022-09-29T15:28:15;16.50;99.90
7720;DHT22;3902;49.474;8.616;2022-09-29T15:30:43;16.50;99.90
7720;DHT22;3902;49.474;8.616;2022-09-29T15:33:17;16.50;99.90
7720;DHT22;3902;49.474;8.616;2022-09-29T15:35:45;16.50;99.90
7720;DHT22;3902;49.474;8.616;2022-09-29T15:40:59;16.50;99.90
7720;DHT22;3902;49.474;8.616;2022-09-29T15:43:27;16.50;99.90
7720;DHT22;3902;49.474;8.616;2022-09-29T15:45:55;16.50;99.90
7720;DHT22;3902;49.474;8.616;2022-09-29T15:48:22;16.50;99.90
7720;DHT22;3902;49.474;8.616;2022-09-29T15:50:48;16.50;99.90
7720;DHT22;3902;49.474;8.616;2022-09-29T15:53:15;16.40;99.90
7720;DHT22;3902;49.474;8.616;2022-09-29T15:55:41;16.40;99.90
7720;DHT22;3902;49.474;8.616;2022-09-29T16:00:59;16.40;99.90
7720;DHT22;3902;49.474;8.616;2022-09-29T16:03:35;16.30;99.90
7720;DHT22;3902;49.474;8.616;2022-09-29T16:08:50;16.20;99.90
7720;DHT22;3902;49.474;8.616;2022-09-29T16:11:31;16.20;99.90
7720;DHT22;3902;49.474;8.616;2022-09-29T16:14:08;16.20;99.90
7720;DHT22;3902;49.474;8.616;2022-09-29T16:16:40;16.10;99.90
7720;DHT22;3902;49.474;8.616;2022-09-29T16:19:12;16.10;99.90
7720;DHT22;3902;49.474;8.616;2022-09-29T16:21:40;16.00;99.90
7720;DHT22;3902;49.474;8.616;2022-09-29T16:24:18;16.00;99.90
7720;DHT22;3902;49.474;8.616;2022-09-29T16:31:42;15.90;99.90
7720;DHT22;3902;49.474;8.616;2022-09-29T16:36:57;15.80;99.90
7720;DHT22;3902;49.474;8.616;2022-09-29T16:39:29;15.80;99.90
7720;DHT22;3902;49.474;8.616;2022-09-29T16:41:59;15.70;99.90
7720;DHT22;3902;49.474;8.616;2022-09-29T16:44:33;15.70;99.90
7720;DHT22;3902;49.474;8.616;2022-09-29T16:49:36;15.60;99.90
7720;DHT22;3902;49.474;8.616;2022-09-29T16:54:53;15.60;99.90
7720;DHT22;3902;49.474;8.616;2022-09-29T16:59:49;15.50;99.90
7720;DHT22;3902;49.474;8.616;2022-09-29T17:02:16;15.50;99.90
7720;DHT22;3902;49.474;8.616;2022-09-29T17:04:41;15.50;99.90
7720;DHT22;3902;49.474;8.616;2022-09-29T17:07:12;15.40;99.90
7720;DHT22;3902;49.474;8.616;2022-09-29T17:09:39;15.40;99.90
7720;DHT22;3902;49.474;8.616;2022-09-29T17:12:12;15.40;99.90
7720;DHT22;3902;49.474;8.616;2022-09-29T17:14:38;15.30;99.90
7720;DHT22;3902;49.474;8.616;2022-09-29T17:17:04;15.30;99.90
7720;DHT22;3902;49.474;8.616;2022-09-29T17:19:29;15.30;99.90
7720;DHT22;3902;49.474;8.616;2022-09-29T17:21:55;15.30;99.90
7720;DHT22;3902;49.474;8.616;2022-09-29T17:24:21;15.20;99.90
7720;DHT22;3902;49.474;8.616;2022-09-29T17:26:47;15.20;99.90
7720;DHT22;3902;49.474;8.616;2022-09-29T17:29:31;15.20;99.90
7720;DHT22;3902;49.474;8.616;2022-09-29T17:31:57;15.10;99.90
7720;DHT22;3902;49.474;8.616;2022-09-29T17:34:22;15.10;99.90
7720;DHT22;3902;49.474;8.616;2022-09-29T17:36:58;15.10;99.90
7720;DHT22;3902;49.474;8.616;2022-09-29T17:39:26;15.10;99.90
7720;DHT22;3902;49.474;8.616;2022-09-29T17:41:52;15.00;99.90
7720;DHT22;3902;49.474;8.616;2022-09-29T17:44:17;15.00;99.90
7720;DHT22;3902;49.474;8.616;2022-09-29T17:46:43;15.00;99.90
7720;DHT22;3902;49.474;8.616;2022-09-29T17:49:13;14.90;99.90
7720;DHT22;3902;49.474;8.616;2022-09-29T17:51:39;14.90;99.90
7720;DHT22;3902;49.474;8.616;2022-09-29T17:54:05;14.90;99.90
7720;DHT22;3902;49.474;8.616;2022-09-29T17:56:35;14.80;99.90
7720;DHT22;3902;49.474;8.616;2022-09-29T17:59:03;14.80;99.90
7720;DHT22;3902;49.474;8.616;2022-09-29T18:01:31;14.80;99.90
7720;DHT22;3902;49.474;8.616;2022-09-29T18:04:00;14.80;99.90
7720;DHT22;3902;49.474;8.616;2022-09-29T18:06:26;14.80;99.90
7720;DHT22;3902;49.474;8.616;2022-09-29T18:08:53;14.70;99.90
7720;DHT22;3902;49.474;8.616;2022-09-29T18:11:21;14.70;99.90
7720;DHT22;3902;49.474;8.616;2022-09-29T18:13:47;14.70;99.90
7720;DHT22;3902;49.474;8.616;2022-09-29T18:16:18;14.70;99.90
7720;DHT22;3902;49.474;8.616;2022-09-29T18:18:44;14.70;99.90
7720;DHT22;3902;49.474;8.616;2022-09-29T18:21:11;14.60;99.90
7720;DHT22;3902;49.474;8.616;2022-09-29T18:23:37;14.60;99.90
7720;DHT22;3902;49.474;8.616;2022-09-29T18:26:04;14.60;99.90
7720;DHT22;3902;49.474;8.616;2022-09-29T18:28:30;14.60;99.90
7720;DHT22;3902;49.474;8.616;2022-09-29T18:31:32;14.50;99.90
7720;DHT22;3902;49.474;8.616;2022-09-29T18:33:58;14.50;99.90
7720;DHT22;3902;49.474;8.616;2022-09-29T18:36:23;14.50;99.90
7720;DHT22;3902;49.474;8.616;2022-09-29T18:38:49;14.40;99.90
7720;DHT22;3902;49.474;8.616;2022-09-29T18:41:17;14.40;99.90
7720;DHT22;3902;49.474;8.616;2022-09-29T18:43:48;14.40;99.90
7720;DHT22;3902;49.474;8.616;2022-09-29T18:46:14;14.40;99.90
7720;DHT22;3902;49.474;8.616;2022-09-29T18:48:41;14.30;99.90
7720;DHT22;3902;49.474;8.616;2022-09-29T18:51:07;14.30;99.90
7720;DHT22;3902;49.474;8.616;2022-09-29T18:53:32;14.30;99.90
7720;DHT22;3902;49.474;8.616;2022-09-29T18:56:01;14.30;99.90
7720;DHT22;3902;49.474;8.616;2022-09-29T18:58:27;14.20;99.90
7720;DHT22;3902;49.474;8.616;2022-09-29T19:00:54;14.20;99.90
7720;DHT22;3902;49.474;8.616;2022-09-29T19:03:24;14.20;99.90
7720;DHT22;3902;49.474;8.616;2022-09-29T19:05:51;14.20;99.90
7720;DHT22;3902;49.474;8.616;2022-09-29T19:08:17;14.10;99.90
7720;DHT22;3902;49.474;8.616;2022-09-29T19:10:53;14.10;99.90
7720;DHT22;3902;49.474;8.616;2022-09-29T19:13:20;14.00;99.90
7720;DHT22;3902;49.474;8.616;2022-09-29T19:15:46;14.10;99.90
7720;DHT22;3902;49.474;8.616;2022-09-29T19:18:20;14.00;99.90
7720;DHT22;3902;49.474;8.616;2022-09-29T19:20:53;14.00;99.90
7720;DHT22;3902;49.474;8.616;2022-09-29T19:23:20;14.00;99.90